createdAt,value
2022-10-06T00:01:57.187Z,16.11
2022-10-06T00:05:01.328Z,16.11
2022-10-06T00:08:03.943Z,16.14
2022-10-06T00:11:07.545Z,16.07
2022-10-06T00:14:10.227Z,16.13
2022-10-06T00:17:12.873Z,16.10
2022-10-06T00:20:18.099Z,16.14
2022-10-06T00:23:21.062Z,16.17
2022-10-06T00:26:24.268Z,16.13
2022-10-06T00:29:27.229Z,16.14
2022-10-06T00:32:29.937Z,16.01
2022-10-06T00:35:35.559Z,15.90
2022-10-06T00:38:38.202Z,15.82
2022-10-06T00:41:41.005Z,15.76
2022-10-06T00:44:43.619Z,15.71
2022-10-06T00:47:46.323Z,15.65
2022-10-06T00:50:50.973Z,15.63
2022-10-06T00:53:54.019Z,15.73
2022-10-06T00:56:56.943Z,15.66
2022-10-06T00:59:59.729Z,15.31
2022-10-06T01:03:05.738Z,14.96
2022-10-06T01:06:09.891Z,14.66
2022-10-06T01:09:13.598Z,14.45
2022-10-06T01:12:16.761Z,14.30
2022-10-06T01:15:20.010Z,14.05
2022-10-06T01:18:23.836Z,13.81
2022-10-06T01:21:31.520Z,13.72
2022-10-06T01:24:35.620Z,13.63
2022-10-06T01:27:40.006Z,13.58
2022-10-06T01:30:46.048Z,13.46
2022-10-06T01:33:52.356Z,13.36
2022-10-06T01:36:55.392Z,13.34
2022-10-06T01:39:59.480Z,13.32
2022-10-06T01:43:02.354Z,13.27
2022-10-06T01:46:05.311Z,13.18
2022-10-06T01:49:08.171Z,13.15
2022-10-06T01:52:10.948Z,13.14
2022-10-06T01:55:15.879Z,13.13
2022-10-06T01:58:18.653Z,13.05
2022-10-06T02:01:21.360Z,12.94
2022-10-06T02:04:24.197Z,12.93
2022-10-06T02:07:27.047Z,12.97
2022-10-06T02:10:31.177Z,13.05
2022-10-06T02:13:33.850Z,13.05
2022-10-06T02:16:36.489Z,13.04
2022-10-06T02:19:39.183Z,13.06
2022-10-06T02:22:43.834Z,13.02
2022-10-06T02:25:47.867Z,12.92
2022-10-06T02:28:51.106Z,12.83
2022-10-06T02:31:54.875Z,12.78
2022-10-06T02:34:57.406Z,12.80
2022-10-06T02:38:00.022Z,12.85
2022-10-06T02:41:04.081Z,12.91
2022-10-06T02:44:06.843Z,12.95
2022-10-06T02:47:12.602Z,13.17
2022-10-06T02:50:15.306Z,13.44
2022-10-06T02:53:18.785Z,13.61
2022-10-06T02:56:24.452Z,13.74
2022-10-06T02:59:27.485Z,13.61
2022-10-06T03:02:31.261Z,13.48
2022-10-06T03:05:34.167Z,13.30
2022-10-06T03:08:36.856Z,13.09
2022-10-06T03:11:42.547Z,12.86
2022-10-06T03:14:45.269Z,12.76
2022-10-06T03:17:49.788Z,12.70
2022-10-06T03:20:54.028Z,12.63
2022-10-06T03:23:57.522Z,12.63
2022-10-06T03:27:01.619Z,12.59
2022-10-06T03:30:04.940Z,12.58
2022-10-06T03:33:07.637Z,12.57
2022-10-06T03:36:13.157Z,12.58
2022-10-06T03:39:15.900Z,12.76
2022-10-06T03:42:20.020Z,12.93
2022-10-06T03:45:22.811Z,13.14
2022-10-06T03:48:25.831Z,13.39
2022-10-06T03:51:31.356Z,13.50
2022-10-06T03:54:34.063Z,13.71
2022-10-06T03:57:38.225Z,13.75
2022-10-06T04:00:41.317Z,13.52
2022-10-06T04:03:44.473Z,13.45
2022-10-06T04:06:48.068Z,13.55
2022-10-06T04:09:50.618Z,13.73
2022-10-06T04:12:54.892Z,13.87
2022-10-06T04:15:57.565Z,13.98
2022-10-06T04:19:01.528Z,13.90
2022-10-06T04:22:04.731Z,13.92
2022-10-06T04:25:08.691Z,13.94
2022-10-06T04:28:12.783Z,14.06
2022-10-06T04:31:17.477Z,14.03
2022-10-06T04:34:21.527Z,13.92
2022-10-06T04:37:24.296Z,13.75
2022-10-06T04:40:27.078Z,13.58
2022-10-06T04:43:31.185Z,13.47
2022-10-06T04:46:43.098Z,13.41
2022-10-06T04:49:46.768Z,13.54
2022-10-06T04:52:49.518Z,13.76
2022-10-06T04:56:02.590Z,14.00
2022-10-06T04:59:06.653Z,14.12
2022-10-06T05:02:09.484Z,14.22
2022-10-06T05:05:12.261Z,14.26
2022-10-06T05:08:14.949Z,14.28
2022-10-06T05:11:19.474Z,14.37
2022-10-06T05:14:25.814Z,14.42
2022-10-06T05:17:28.926Z,14.45
2022-10-06T05:20:31.772Z,14.52
2022-10-06T05:23:36.151Z,14.55
2022-10-06T05:26:38.990Z,14.59
2022-10-06T05:29:43.402Z,14.65
2022-10-06T05:32:47.119Z,14.73
2022-10-06T05:35:53.489Z,14.74
2022-10-06T05:38:56.303Z,14.80
2022-10-06T05:41:59.241Z,14.88
2022-10-06T05:45:03.486Z,14.89
2022-10-06T05:48:06.211Z,14.91
2022-10-06T05:51:11.117Z,14.89
2022-10-06T05:54:14.434Z,14.87
2022-10-06T05:57:17.208Z,14.81
2022-10-06T06:00:21.477Z,14.87
2022-10-06T06:03:24.340Z,14.97
2022-10-06T06:06:29.192Z,15.07
2022-10-06T06:09:31.978Z,15.08
2022-10-06T06:12:34.672Z,15.20
2022-10-06T06:15:56.450Z,15.23
2022-10-06T06:18:59.837Z,15.26
2022-10-06T06:22:02.541Z,15.26
2022-10-06T06:25:05.550Z,15.37
2022-10-06T06:28:08.966Z,15.44
2022-10-06T06:31:19.075Z,15.54
2022-10-06T06:34:22.947Z,15.66
2022-10-06T06:37:25.655Z,15.89
2022-10-06T06:40:28.432Z,16.05
2022-10-06T06:43:31.559Z,16.24
2022-10-06T06:49:43.798Z,16.48
2022-10-06T06:52:47.031Z,16.77
2022-10-06T06:55:51.262Z,16.94
2022-10-06T06:58:54.421Z,16.93
2022-10-06T07:01:58.854Z,17.02
2022-10-06T07:05:01.663Z,17.13
2022-10-06T07:08:04.515Z,17.37
2022-10-06T07:11:15.446Z,17.57
2022-10-06T07:14:18.334Z,17.85
2022-10-06T07:17:40.087Z,17.94
2022-10-06T07:21:02.761Z,17.91
2022-10-06T07:24:34.587Z,17.89
2022-10-06T07:27:39.794Z,18.08
2022-10-06T07:30:42.543Z,18.20
2022-10-06T07:33:46.476Z,18.35
2022-10-06T07:36:54.074Z,18.37
2022-10-06T07:39:57.065Z,18.31
2022-10-06T07:43:00.549Z,18.45
2022-10-06T07:46:03.271Z,18.86
2022-10-06T07:49:08.479Z,19.18
2022-10-06T07:52:11.421Z,19.39
2022-10-06T07:55:17.468Z,19.46
2022-10-06T07:58:22.595Z,19.46
2022-10-06T08:01:26.868Z,19.19
2022-10-06T08:04:30.997Z,19.55
2022-10-06T08:07:33.807Z,19.12
2022-10-06T08:10:36.680Z,19.09
2022-10-06T08:13:42.235Z,19.17
2022-10-06T08:16:44.860Z,19.65
2022-10-06T08:19:48.911Z,19.33
2022-10-06T08:22:51.659Z,19.67
2022-10-06T08:25:56.377Z,20.00
2022-10-06T08:29:00.360Z,20.28
2022-10-06T08:32:04.255Z,20.16
2022-10-06T08:35:08.850Z,19.47
2022-10-06T08:38:11.461Z,19.75
2022-10-06T08:41:22.782Z,19.45
2022-10-06T08:44:30.754Z,19.76
2022-10-06T08:47:36.277Z,20.08
2022-10-06T08:50:47.071Z,20.19
2022-10-06T08:53:59.478Z,19.71
2022-10-06T08:57:08.656Z,19.88
2022-10-06T09:00:13.638Z,19.70
2022-10-06T09:03:23.995Z,20.05
2022-10-06T09:06:45.201Z,19.86
2022-10-06T09:09:57.131Z,20.05
2022-10-06T09:13:04.809Z,20.38
2022-10-06T09:16:09.746Z,20.05
2022-10-06T09:19:17.452Z,19.81
2022-10-06T09:22:23.130Z,19.78
2022-10-06T09:25:28.766Z,20.01
2022-10-06T09:28:34.359Z,20.29
2022-10-06T09:31:38.946Z,21.17
2022-10-06T09:34:45.644Z,21.21
2022-10-06T09:37:56.925Z,21.55
2022-10-06T09:41:00.047Z,22.31
2022-10-06T09:44:04.852Z,22.87
2022-10-06T09:47:24.320Z,21.83
2022-10-06T09:50:28.362Z,22.39
2022-10-06T09:53:36.839Z,22.20
2022-10-06T09:56:41.881Z,22.19
2022-10-06T09:59:45.959Z,21.51
2022-10-06T10:02:49.068Z,20.63
2022-10-06T10:05:55.008Z,20.90
2022-10-06T10:09:23.015Z,21.77
2022-10-06T10:12:28.605Z,21.61
2022-10-06T10:15:33.852Z,20.71
2022-10-06T10:18:36.637Z,20.75
2022-10-06T10:21:39.502Z,21.23
2022-10-06T10:24:49.691Z,21.65
2022-10-06T10:27:58.886Z,20.79
2022-10-06T10:31:06.211Z,20.04
2022-10-06T10:34:25.149Z,20.08
2022-10-06T10:37:35.162Z,20.10
2022-10-06T10:40:43.008Z,20.07
2022-10-06T10:43:49.840Z,20.19
2022-10-06T10:46:53.839Z,20.56
2022-10-06T10:50:01.772Z,20.50
2022-10-06T10:53:10.455Z,20.42
2022-10-06T10:56:16.139Z,21.17
2022-10-06T10:59:22.482Z,21.71
2022-10-06T11:02:25.334Z,21.54
2022-10-06T11:05:41.045Z,20.94
2022-10-06T11:08:49.565Z,20.80
2022-10-06T11:12:04.606Z,21.02
2022-10-06T11:15:13.754Z,21.12
2022-10-06T11:18:26.264Z,21.36
2022-10-06T11:21:32.790Z,21.91
2022-10-06T11:24:41.565Z,22.99
2022-10-06T11:27:52.836Z,23.20
2022-10-06T11:31:01.719Z,22.90
2022-10-06T11:34:06.454Z,21.82
2022-10-06T11:37:18.952Z,22.57
2022-10-06T11:40:36.360Z,21.97
2022-10-06T11:43:47.628Z,23.01
2022-10-06T11:46:53.256Z,22.32
2022-10-06T11:49:56.843Z,23.28
2022-10-06T11:52:59.505Z,23.38
2022-10-06T11:56:45.035Z,23.60
2022-10-06T11:59:49.193Z,23.52
2022-10-06T12:02:52.254Z,22.79
2022-10-06T12:05:56.485Z,22.74
2022-10-06T12:08:59.480Z,22.63
2022-10-06T12:12:03.845Z,23.63
2022-10-06T12:18:46.407Z,23.52
2022-10-06T12:21:56.270Z,23.13
2022-10-06T12:25:04.017Z,23.99
2022-10-06T12:28:11.176Z,22.95
2022-10-06T12:31:30.455Z,22.21
2022-10-06T12:34:57.452Z,22.16
2022-10-06T12:38:04.833Z,22.86
2022-10-06T12:41:11.321Z,21.38
2022-10-06T12:44:24.018Z,21.59
2022-10-06T12:47:33.866Z,22.64
2022-10-06T12:50:38.049Z,22.96
2022-10-06T12:53:46.685Z,23.48
2022-10-06T12:56:58.908Z,23.66
2022-10-06T13:00:01.679Z,23.20
2022-10-06T13:03:08.820Z,24.80
2022-10-06T13:06:11.907Z,26.11
2022-10-06T13:09:16.751Z,25.55
2022-10-06T13:12:28.323Z,25.27
2022-10-06T13:15:34.682Z,24.33
2022-10-06T13:18:38.922Z,22.46
2022-10-06T13:21:44.168Z,21.97
2022-10-06T13:24:55.784Z,22.01
2022-10-06T13:28:02.149Z,22.33
2022-10-06T13:31:17.225Z,22.35
2022-10-06T13:34:26.996Z,22.51
2022-10-06T13:37:30.072Z,21.85
2022-10-06T13:40:44.947Z,22.20
2022-10-06T13:43:55.820Z,21.70
2022-10-06T13:47:03.180Z,22.04
2022-10-06T13:50:10.125Z,22.62
2022-10-06T13:53:25.700Z,22.97
2022-10-06T13:56:34.686Z,23.67
2022-10-06T13:59:38.421Z,24.32
2022-10-06T14:02:41.833Z,24.85
2022-10-06T14:05:47.520Z,25.10
2022-10-06T14:08:52.499Z,26.33
2022-10-06T14:12:03.554Z,31.17
2022-10-06T14:15:18.023Z,33.17
2022-10-06T14:18:23.453Z,30.85
2022-10-06T14:21:34.801Z,29.54
2022-10-06T14:24:37.664Z,27.23
2022-10-06T14:27:43.134Z,30.62
2022-10-06T14:30:47.332Z,33.40
2022-10-06T14:33:52.064Z,36.59
2022-10-06T14:36:57.235Z,38.01
2022-10-06T14:40:12.504Z,38.98
2022-10-06T14:43:15.340Z,36.16
2022-10-06T14:46:17.922Z,35.21
2022-10-06T14:49:21.522Z,32.60
2022-10-06T14:52:25.703Z,32.87
2022-10-06T14:55:30.509Z,32.26
2022-10-06T14:58:33.849Z,29.76
2022-10-06T15:01:38.500Z,24.92
2022-10-06T15:04:41.592Z,23.45
2022-10-06T15:08:03.215Z,22.95
2022-10-06T15:11:06.126Z,22.98
2022-10-06T15:14:09.879Z,24.93
2022-10-06T15:17:13.224Z,24.55
2022-10-06T15:20:17.253Z,23.01
2022-10-06T15:23:21.443Z,22.68
2022-10-06T15:26:42.581Z,21.88
2022-10-06T15:29:45.442Z,20.75
2022-10-06T15:32:49.369Z,20.70
2022-10-06T15:36:15.372Z,21.12
2022-10-06T15:39:21.007Z,21.22
2022-10-06T15:42:25.194Z,21.61
2022-10-06T15:45:28.349Z,23.16
2022-10-06T15:48:31.162Z,25.55
2022-10-06T15:51:37.190Z,28.04
2022-10-06T15:54:41.841Z,27.02
2022-10-06T15:57:44.555Z,24.66
2022-10-06T16:00:47.295Z,22.88
2022-10-06T16:03:50.875Z,22.00
2022-10-06T16:07:00.129Z,21.26
2022-10-06T16:10:04.498Z,20.80
2022-10-06T16:13:07.419Z,20.57
2022-10-06T16:16:10.168Z,20.27
2022-10-06T16:19:13.310Z,19.99
2022-10-06T16:22:18.039Z,19.81
2022-10-06T16:25:22.123Z,19.66
2022-10-06T16:28:25.122Z,19.40
2022-10-06T16:31:27.982Z,19.07
2022-10-06T16:34:31.452Z,18.75
2022-10-06T16:37:34.286Z,18.45
2022-10-06T16:41:04.641Z,18.10
2022-10-06T16:44:07.521Z,17.89
2022-10-06T16:47:10.350Z,17.85
2022-10-06T16:50:13.112Z,17.72
2022-10-06T16:53:17.332Z,17.65
2022-10-06T16:56:23.498Z,17.68
2022-10-06T16:59:30.361Z,17.64
2022-10-06T17:02:33.973Z,17.54
2022-10-06T17:05:39.560Z,17.43
2022-10-06T17:08:42.985Z,17.44
2022-10-06T17:11:49.915Z,17.43
2022-10-06T17:14:55.189Z,17.43
2022-10-06T17:17:58.067Z,17.43
2022-10-06T17:21:15.447Z,17.47
2022-10-06T17:24:27.925Z,17.49
2022-10-06T17:27:36.076Z,17.49
2022-10-06T17:30:52.626Z,17.43
2022-10-06T17:33:55.771Z,17.38
2022-10-06T17:36:59.305Z,17.32
2022-10-06T17:40:01.990Z,17.37
2022-10-06T17:43:06.057Z,17.47
2022-10-06T17:46:13.313Z,17.40
2022-10-06T17:49:20.025Z,17.35
2022-10-06T17:52:24.393Z,17.27
2022-10-06T17:55:28.031Z,17.29
2022-10-06T17:58:32.125Z,17.31
2022-10-06T18:01:36.156Z,17.29
2022-10-06T18:04:39.256Z,17.29
2022-10-06T18:07:45.653Z,17.28
2022-10-06T18:11:06.122Z,17.28
2022-10-06T18:14:12.354Z,17.22
2022-10-06T18:17:15.301Z,17.13
2022-10-06T18:20:21.510Z,17.07
2022-10-06T18:23:24.523Z,17.00
2022-10-06T18:26:27.254Z,16.84
2022-10-06T18:29:35.403Z,16.74
2022-10-06T18:34:58.820Z,16.69
2022-10-06T18:36:17.876Z,16.71
2022-10-06T18:39:20.672Z,16.50
2022-10-06T18:42:24.113Z,16.38
2022-10-06T18:45:45.823Z,16.33
2022-10-06T18:48:58.642Z,16.13
2022-10-06T18:52:01.621Z,16.00
2022-10-06T18:55:04.612Z,15.94
2022-10-06T18:58:07.297Z,15.82
2022-10-06T19:01:15.238Z,15.64
2022-10-06T19:04:19.253Z,15.53
2022-10-06T19:07:22.640Z,15.52
2022-10-06T19:10:29.995Z,15.47
2022-10-06T19:13:32.597Z,15.38
2022-10-06T19:16:36.877Z,15.24
2022-10-06T19:19:50.344Z,15.19
2022-10-06T19:22:52.936Z,15.23
2022-10-06T19:25:59.774Z,15.32
2022-10-06T19:29:08.126Z,15.32
2022-10-06T19:32:13.684Z,15.21
2022-10-06T19:35:16.588Z,15.19
2022-10-06T19:38:19.398Z,15.15
2022-10-06T19:41:43.188Z,15.13
2022-10-06T19:44:45.851Z,15.03
2022-10-06T19:47:53.235Z,15.14
2022-10-06T19:50:55.926Z,15.20
2022-10-06T19:54:00.409Z,15.11
2022-10-06T19:57:05.683Z,15.07
2022-10-06T20:00:10.231Z,15.04
2022-10-06T20:03:14.218Z,15.02
2022-10-06T20:06:17.011Z,14.87
2022-10-06T20:09:21.530Z,14.63
2022-10-06T20:12:25.510Z,14.57
2022-10-06T20:15:29.401Z,14.66
2022-10-06T20:18:38.280Z,14.68
2022-10-06T20:21:41.430Z,14.64
2022-10-06T20:24:47.690Z,14.63
2022-10-06T20:27:51.244Z,14.63
2022-10-06T20:30:53.799Z,14.73
2022-10-06T20:34:00.026Z,14.85
2022-10-06T20:37:06.365Z,14.89
2022-10-06T20:40:28.111Z,14.78
2022-10-06T20:43:35.617Z,14.92
2022-10-06T20:46:39.811Z,15.09
2022-10-06T20:49:43.905Z,15.12
2022-10-06T20:52:47.092Z,15.06
2022-10-06T20:55:52.484Z,15.02
2022-10-06T20:58:55.320Z,15.11
2022-10-06T21:01:59.437Z,15.06
2022-10-06T21:05:07.333Z,15.05
2022-10-06T21:08:09.994Z,15.07
2022-10-06T21:11:13.856Z,15.02
2022-10-06T21:14:17.631Z,14.94
2022-10-06T21:17:20.339Z,14.88
2022-10-06T21:20:27.509Z,14.85
2022-10-06T21:23:30.497Z,14.83
2022-10-06T21:26:36.155Z,14.84
2022-10-06T21:29:39.105Z,14.82
2022-10-06T21:32:42.547Z,14.82
2022-10-06T21:35:46.709Z,14.83
2022-10-06T21:38:51.121Z,14.80
2022-10-06T21:41:53.923Z,14.84
2022-10-06T21:44:56.656Z,14.74
2022-10-06T21:47:59.542Z,14.60
2022-10-06T21:51:03.686Z,14.57
2022-10-06T21:54:10.554Z,14.55
2022-10-06T21:57:15.687Z,14.57
2022-10-06T22:00:19.706Z,14.52
2022-10-06T22:03:22.413Z,14.45
2022-10-06T22:06:26.957Z,14.37
2022-10-06T22:09:29.782Z,14.33
2022-10-06T22:12:32.505Z,14.32
2022-10-06T22:15:36.950Z,14.26
2022-10-06T22:18:41.704Z,14.27
2022-10-06T22:21:47.003Z,14.28
2022-10-06T22:24:49.783Z,14.27
2022-10-06T22:27:52.676Z,14.19
2022-10-06T22:31:03.385Z,14.05
2022-10-06T22:34:06.855Z,13.93
2022-10-06T22:37:11.122Z,13.89
2022-10-06T22:40:13.854Z,13.98
2022-10-06T22:43:16.650Z,13.88
2022-10-06T22:46:19.420Z,13.85
2022-10-06T22:49:22.351Z,13.92
2022-10-06T22:52:26.429Z,13.94
2022-10-06T22:55:29.259Z,13.94
2022-10-06T22:58:32.112Z,13.92
2022-10-06T23:01:34.907Z,13.97
2022-10-06T23:04:37.678Z,13.94
2022-10-06T23:07:42.091Z,13.90
2022-10-06T23:10:45.106Z,13.90
2022-10-06T23:13:48.569Z,13.85
2022-10-06T23:16:51.400Z,13.81
2022-10-06T23:19:54.189Z,13.80
2022-10-06T23:22:58.321Z,13.78
2022-10-06T23:26:05.697Z,13.80
2022-10-06T23:29:08.554Z,13.87
2022-10-06T23:32:11.320Z,13.97
2022-10-06T23:35:14.092Z,14.03
2022-10-06T23:38:18.277Z,14.07
2022-10-06T23:41:21.438Z,14.13
2022-10-06T23:44:24.351Z,14.19
2022-10-06T23:47:27.112Z,14.24
2022-10-06T23:50:29.829Z,14.31
2022-10-06T23:53:34.539Z,14.32
2022-10-06T23:56:37.408Z,14.31
2022-10-06T23:59:40.275Z,14.31
